Time;durP1;ratioP1;P1;durP2;ratioP2;P2;SDS_P1;SDS_P2;PMS_P1;PMS_P2;Temp;Humidity;BMP_temperature;BMP_pressure;BME280_temperature;BME280_humidity;BME280_pressure;Samples;Min_cycle;Max_cycle;Signal;HPM_P1;HPM_P2
2023/05/10 00:00:27;;;;;;;6.93;6.70;;;15.80;57.40;;;;;;5066317;28;20183;-73
2023/05/10 00:02:53;;;;;;;7.37;7.00;;;15.70;58.20;;;;;;5068550;28;20211;-73
2023/05/10 00:05:18;;;;;;;6.90;6.67;;;15.50;56.60;;;;;;5049911;28;20594;-73
2023/05/10 00:07:44;;;;;;;6.67;6.47;;;15.40;56.70;;;;;;5067621;28;20202;-74
2023/05/10 00:10:10;;;;;;;7.10;6.90;;;15.30;57.30;;;;;;5050260;28;20175;-74
2023/05/10 00:12:36;;;;;;;6.00;5.80;;;15.30;57.30;;;;;;5067399;28;20609;-73
2023/05/10 00:15:02;;;;;;;6.20;6.00;;;15.30;58.00;;;;;;5064727;28;20512;-73
2023/05/10 00:17:28;;;;;;;6.73;6.43;;;15.20;57.10;;;;;;5069989;28;20183;-73
2023/05/10 00:19:54;;;;;;;6.60;6.37;;;15.30;57.30;;;;;;5065254;28;20780;-73
2023/05/10 00:22:19;;;;;;;6.57;6.37;;;15.30;56.70;;;;;;5048498;28;20199;-72
2023/05/10 00:24:45;;;;;;;6.47;6.27;;;15.20;56.70;;;;;;5065619;28;20406;-73
2023/05/10 00:27:10;;;;;;;6.43;6.23;;;15.20;56.30;;;;;;5066438;28;20922;-72
2023/05/10 00:29:36;;;;;;;6.90;6.70;;;15.20;57.40;;;;;;5067794;28;20210;-74
2023/05/10 00:32:02;;;;;;;6.70;6.50;;;15.20;56.00;;;;;;5067422;28;20191;-72
2023/05/10 00:34:27;;;;;;;7.37;7.17;;;15.20;55.10;;;;;;5067232;28;20174;-70
2023/05/10 00:36:53;;;;;;;6.87;6.67;;;15.10;54.70;;;;;;5067976;28;20684;-73
2023/05/10 00:39:18;;;;;;;6.40;6.20;;;15.20;55.50;;;;;;5067349;28;20668;-72
2023/05/10 00:41:44;;;;;;;7.53;6.97;;;15.20;54.50;;;;;;5048510;28;20569;-73
2023/05/10 00:44:09;;;;;;;6.90;6.70;;;15.30;53.90;;;;;;5065366;28;20187;-72
2023/05/10 00:46:35;;;;;;;6.97;6.77;;;15.30;53.90;;;;;;5049318;28;21073;-72
2023/05/10 00:49:01;;;;;;;7.20;6.80;;;15.40;53.00;;;;;;5068502;28;20182;-73
2023/05/10 00:51:27;;;;;;;7.27;7.03;;;15.20;53.40;;;;;;5067572;28;20417;-73
2023/05/10 00:53:53;;;;;;;7.13;6.93;;;15.10;54.00;;;;;;5067015;28;20439;-72
2023/05/10 00:56:22;;;;;;;7.30;7.10;;;15.20;53.90;;;;;;5064653;28;20262;-72
2023/05/10 00:58:48;;;;;;;7.10;6.80;;;15.20;53.00;;;;;;5066068;28;20402;-72
2023/05/10 01:01:14;;;;;;;7.97;7.67;;;15.20;52.40;;;;;;5065407;28;20963;-73
2023/05/10 01:03:40;;;;;;;7.97;7.67;;;15.10;52.30;;;;;;5065618;28;20195;-73
2023/05/10 01:06:06;;;;;;;7.60;7.40;;;15.10;53.10;;;;;;5064298;28;20185;-73
2023/05/10 01:08:32;;;;;;;7.70;7.40;;;15.10;52.60;;;;;;5066506;28;20414;-73
2023/05/10 01:10:58;;;;;;;7.57;7.37;;;15.10;53.40;;;;;;5067034;28;20421;-72
2023/05/10 01:13:35;;;;;;;7.60;7.20;;;15.10;52.70;;;;;;5066208;28;20536;-73
2023/05/10 01:16:02;;;;;;;7.30;7.00;;;15.20;51.50;;;;;;5064716;28;20431;-73
2023/05/10 01:18:30;;;;;;;7.80;7.60;;;15.20;52.00;;;;;;5064566;28;20432;-73
2023/05/10 01:21:20;;;;;;;7.90;7.70;;;15.30;51.20;;;;;;5064097;28;20992;-72
2023/05/10 01:24:09;;;;;;;7.60;7.27;;;15.20;50.80;;;;;;5045643;28;20799;-72
2023/05/10 01:27:01;;;;;;;8.23;7.60;;;15.10;51.80;;;;;;5064350;28;20406;-70
2023/05/10 01:30:01;;;;;;;8.07;7.77;;;15.20;51.80;;;;;;5064330;28;20499;-73
2023/05/10 01:32:50;;;;;;;8.27;7.97;;;15.10;51.10;;;;;;5063755;28;20425;-74
2023/05/10 01:35:20;;;;;;;9.10;8.60;;;15.00;51.10;;;;;;5065272;28;20437;-73
2023/05/10 01:37:57;;;;;;;8.70;8.50;;;14.80;52.00;;;;;;5065957;28;20413;-72
2023/05/10 01:40:36;;;;;;;8.20;7.90;;;14.70;52.50;;;;;;5045146;28;20445;-72
2023/05/10 01:43:03;;;;;;;8.47;8.07;;;14.70;53.30;;;;;;5063827;28;20452;-73
2023/05/10 01:45:39;;;;;;;8.00;7.70;;;14.70;53.20;;;;;;5063428;28;20421;-73
2023/05/10 01:48:11;;;;;;;8.07;7.87;;;14.90;53.30;;;;;;5048449;28;20409;-70
2023/05/10 01:50:42;;;;;;;8.40;8.20;;;15.00;52.80;;;;;;5047252;28;20449;-72
2023/05/10 01:53:10;;;;;;;8.27;7.97;;;15.00;51.60;;;;;;5045640;28;20433;-73
2023/05/10 01:55:48;;;;;;;7.87;7.57;;;15.10;52.20;;;;;;5064993;28;20840;-72
2023/05/10 01:58:18;;;;;;;8.20;7.90;;;15.00;51.40;;;;;;5064078;28;20845;-72
2023/05/10 02:00:46;;;;;;;8.30;8.10;;;15.00;50.60;;;;;;5064423;28;20420;-72
2023/05/10 02:03:14;;;;;;;8.13;7.73;;;15.10;52.10;;;;;;5063023;28;20469;-74
2023/05/10 02:05:42;;;;;;;7.90;7.60;;;15.10;50.60;;;;;;5063602;28;20439;-73
2023/05/10 02:08:09;;;;;;;8.20;7.90;;;15.10;50.90;;;;;;5063492;28;20410;-73
2023/05/10 02:10:35;;;;;;;8.50;8.30;;;15.00;50.10;;;;;;5063877;28;20748;-71
2023/05/10 02:13:02;;;;;;;8.10;7.90;;;14.90;50.70;;;;;;5063909;28;20434;-73
2023/05/10 02:15:29;;;;;;;8.33;8.13;;;14.90;51.30;;;;;;5064913;28;20405;-71
2023/05/10 02:17:56;;;;;;;7.97;7.77;;;15.10;52.20;;;;;;5065430;28;20421;-73
2023/05/10 02:20:23;;;;;;;8.20;8.00;;;15.10;52.20;;;;;;5066443;28;20817;-71
2023/05/10 02:22:51;;;;;;;8.43;8.23;;;15.30;52.00;;;;;;5062348;28;20510;-73
2023/05/10 02:25:19;;;;;;;8.23;8.03;;;15.30;50.20;;;;;;5063030;28;20442;-73
2023/05/10 02:27:46;;;;;;;8.53;8.23;;;15.20;50.20;;;;;;5065492;28;20414;-70
2023/05/10 02:30:12;;;;;;;8.70;8.40;;;15.10;49.40;;;;;;5063409;28;20931;-72
2023/05/10 02:32:39;;;;;;;8.80;8.37;;;15.00;50.50;;;;;;5065326;28;20433;-71
2023/05/10 02:35:05;;;;;;;8.50;8.20;;;15.00;51.00;;;;;;5062686;28;20410;-72
2023/05/10 02:37:32;;;;;;;9.10;8.70;;;15.00;50.80;;;;;;5062763;28;20424;-73
2023/05/10 02:39:58;;;;;;;8.13;7.73;;;14.80;51.50;;;;;;5061674;28;20409;-73
2023/05/10 02:42:27;;;;;;;8.80;8.50;;;14.80;51.70;;;;;;5064191;28;20453;-73
2023/05/10 02:44:59;;;;;;;8.90;8.60;;;14.70;51.80;;;;;;5067796;28;20418;-72
2023/05/10 02:47:24;;;;;;;9.40;9.00;;;14.70;51.70;;;;;;5069074;28;20408;-71
2023/05/10 02:49:50;;;;;;;8.37;8.10;;;14.80;51.80;;;;;;5066515;28;20767;-73
2023/05/10 02:52:23;;;;;;;8.50;8.30;;;14.70;52.20;;;;;;5067105;28;20175;-73
2023/05/10 02:54:52;;;;;;;8.63;8.33;;;14.60;52.10;;;;;;5068134;28;20255;-71
2023/05/10 02:57:25;;;;;;;8.37;8.17;;;14.50;52.80;;;;;;5067249;28;20406;-72
2023/05/10 02:59:51;;;;;;;8.20;8.00;;;14.40;52.60;;;;;;5066479;28;20750;-72
2023/05/10 03:02:16;;;;;;;8.17;7.97;;;14.30;53.10;;;;;;5067087;28;20473;-72
2023/05/10 03:04:42;;;;;;;8.23;7.83;;;14.40;53.50;;;;;;5065448;28;20248;-73
2023/05/10 03:07:08;;;;;;;7.67;7.47;;;14.40;54.20;;;;;;5067914;28;20171;-73
2023/05/10 03:09:33;;;;;;;7.93;7.73;;;14.40;53.60;;;;;;5064279;28;20167;-73
2023/05/10 03:12:26;;;;;;;7.90;7.60;;;14.30;53.30;;;;;;5064981;28;20423;-72
2023/05/10 03:15:11;;;;;;;7.33;7.13;;;14.20;53.60;;;;;;5068358;28;20193;-73
2023/05/10 03:18:01;;;;;;;7.30;7.10;;;14.20;54.50;;;;;;5064953;28;20461;-73
2023/05/10 03:20:36;;;;;;;7.17;6.97;;;14.30;55.20;;;;;;5046741;28;20425;-74
2023/05/10 03:23:11;;;;;;;7.43;7.23;;;14.40;54.90;;;;;;5065588;28;20467;-72
2023/05/10 03:25:38;;;;;;;7.67;7.47;;;14.50;53.80;;;;;;5067088;28;20488;-73
2023/05/10 03:28:04;;;;;;;7.70;7.50;;;14.40;53.40;;;;;;5064756;28;20410;-72
2023/05/10 03:30:31;;;;;;;7.33;7.13;;;14.50;54.00;;;;;;5066064;28;20410;-72
2023/05/10 03:32:57;;;;;;;8.40;8.03;;;14.60;52.70;;;;;;5066798;28;20520;-73
2023/05/10 03:35:23;;;;;;;8.03;7.73;;;14.60;51.50;;;;;;5063241;28;20578;-72
2023/05/10 03:37:49;;;;;;;7.73;7.53;;;14.60;51.70;;;;;;5048159;28;20190;-73
2023/05/10 03:40:15;;;;;;;7.73;7.43;;;14.70;52.30;;;;;;5067886;28;20779;-72
2023/05/10 03:42:40;;;;;;;7.27;6.97;;;14.60;52.40;;;;;;5068894;28;20214;-73
2023/05/10 03:45:07;;;;;;;7.80;7.60;;;14.70;53.30;;;;;;5069820;28;20834;-72
2023/05/10 03:47:32;;;;;;;8.10;7.60;;;14.70;52.50;;;;;;5064578;28;20182;-73
2023/05/10 03:49:58;;;;;;;7.80;7.60;;;14.70;51.30;;;;;;5066227;28;20421;-72
2023/05/10 03:52:23;;;;;;;9.07;8.33;;;14.60;52.30;;;;;;5065291;28;20206;-70
2023/05/10 03:54:49;;;;;;;8.23;8.03;;;14.60;52.10;;;;;;5061468;28;20179;-73
2023/05/10 03:57:14;;;;;;;8.40;8.20;;;14.50;52.30;;;;;;5064457;28;20663;-72
2023/05/10 03:59:40;;;;;;;9.03;8.53;;;14.40;52.30;;;;;;5067793;28;20286;-73
2023/05/10 04:02:05;;;;;;;8.50;8.30;;;14.30;52.80;;;;;;5064189;28;20677;-72
2023/05/10 04:04:31;;;;;;;8.40;8.20;;;14.40;53.50;;;;;;5064922;28;20180;-72
2023/05/10 04:06:56;;;;;;;8.07;7.87;;;14.50;54.10;;;;;;5066673;28;20532;-72
2023/05/10 04:09:22;;;;;;;8.60;8.30;;;14.60;53.10;;;;;;5046583;28;20186;-73
2023/05/10 04:11:47;;;;;;;8.50;8.30;;;14.70;53.50;;;;;;5063839;28;20175;-73
2023/05/10 04:14:13;;;;;;;9.07;8.57;;;14.80;52.40;;;;;;5046518;28;20676;-71
2023/05/10 04:16:38;;;;;;;8.70;8.50;;;14.90;51.30;;;;;;5069571;28;20838;-73
2023/05/10 04:19:04;;;;;;;10.03;9.73;;;14.80;50.50;;;;;;5065707;28;20209;-72
2023/05/10 04:21:30;;;;;;;10.00;9.70;;;14.80;51.50;;;;;;5066425;28;20192;-71
2023/05/10 04:23:55;;;;;;;8.57;8.33;;;14.90;51.30;;;;;;5050394;28;20191;-70
2023/05/10 04:26:21;;;;;;;9.20;8.90;;;14.80;50.70;;;;;;5072019;28;20416;-73
2023/05/10 04:28:47;;;;;;;9.80;9.40;;;14.90;51.50;;;;;;5068938;28;20258;-73
2023/05/10 04:31:12;;;;;;;9.50;9.20;;;14.80;51.10;;;;;;5070382;28;20986;-73
2023/05/10 04:33:38;;;;;;;9.97;9.67;;;14.80;51.70;;;;;;5070966;28;20634;-73
2023/05/10 04:36:04;;;;;;;9.00;8.80;;;14.70;51.30;;;;;;5055862;28;20179;-73
2023/05/10 04:38:30;;;;;;;8.43;8.13;;;14.80;52.30;;;;;;5071683;28;20164;-72
2023/05/10 04:41:07;;;;;;;9.23;8.93;;;15.00;52.20;;;;;;5072153;28;20417;-71
2023/05/10 04:43:33;;;;;;;9.70;9.40;;;15.10;51.30;;;;;;5071888;28;20722;-73
2023/05/10 04:45:58;;;;;;;9.60;9.10;;;15.30;50.40;;;;;;5071264;28;20402;-72
2023/05/10 04:48:24;;;;;;;9.43;9.13;;;15.40;49.60;;;;;;5070746;28;20202;-72
2023/05/10 04:50:49;;;;;;;9.13;8.83;;;15.50;48.70;;;;;;5053200;28;20262;-72
2023/05/10 04:53:15;;;;;;;9.73;9.43;;;15.30;48.50;;;;;;5069900;28;20322;-74
2023/05/10 04:55:40;;;;;;;9.80;9.50;;;15.40;48.50;;;;;;5072306;28;20182;-72
2023/05/10 04:58:07;;;;;;;8.50;8.20;;;15.50;47.90;;;;;;5072275;28;20207;-72
2023/05/10 05:00:33;;;;;;;9.23;8.93;;;15.40;47.70;;;;;;5073244;28;20205;-72
2023/05/10 05:02:58;;;;;;;8.63;8.43;;;15.30;48.80;;;;;;5072235;28;20678;-72
2023/05/10 05:05:24;;;;;;;10.10;9.70;;;15.40;48.70;;;;;;5052876;28;20846;-72
2023/05/10 05:07:50;;;;;;;10.00;9.70;;;15.50;47.90;;;;;;5071469;28;20308;-72
2023/05/10 05:10:15;;;;;;;9.50;9.20;;;15.40;48.10;;;;;;5070686;28;20174;-74
2023/05/10 05:12:41;;;;;;;9.87;9.57;;;15.40;48.90;;;;;;5052721;28;20248;-73
2023/05/10 05:15:08;;;;;;;10.30;9.80;;;15.50;48.70;;;;;;5071831;28;20171;-72
2023/05/10 05:17:34;;;;;;;10.30;10.00;;;15.50;47.20;;;;;;5070630;28;20228;-74
2023/05/10 05:20:00;;;;;;;10.50;9.90;;;15.60;47.60;;;;;;5070272;28;20528;-73
2023/05/10 05:22:27;;;;;;;9.83;9.47;;;15.50;47.20;;;;;;5068531;28;20195;-72
2023/05/10 05:24:56;;;;;;;12.87;12.23;;;15.40;48.00;;;;;;5069822;28;20266;-75
2023/05/10 05:27:24;;;;;;;10.70;10.23;;;15.30;47.90;;;;;;5071244;28;20439;-73
2023/05/10 05:29:53;;;;;;;9.60;9.30;;;15.20;47.70;;;;;;5066994;28;20409;-73
2023/05/10 05:32:19;;;;;;;10.30;10.00;;;15.10;48.20;;;;;;5051609;28;20451;-73
2023/05/10 05:34:45;;;;;;;9.87;9.57;;;15.20;48.50;;;;;;5054847;28;20504;-76
2023/05/10 05:37:15;;;;;;;9.53;9.13;;;15.10;49.00;;;;;;5070630;28;20245;-76
2023/05/10 05:39:40;;;;;;;8.93;8.63;;;15.00;48.80;;;;;;5072809;28;20406;-75
2023/05/10 05:42:06;;;;;;;10.00;9.70;;;15.00;49.40;;;;;;5053442;28;20452;-74
2023/05/10 05:44:31;;;;;;;9.77;9.23;;;14.90;50.00;;;;;;5072352;28;20193;-74
2023/05/10 05:46:57;;;;;;;10.00;9.60;;;14.80;50.20;;;;;;5071242;28;20266;-76
2023/05/10 05:49:23;;;;;;;8.73;8.43;;;14.80;51.60;;;;;;5074792;28;20175;-76
2023/05/10 05:51:50;;;;;;;8.57;8.27;;;14.80;51.20;;;;;;5070941;28;20256;-77
2023/05/10 05:54:15;;;;;;;9.50;8.90;;;14.90;51.10;;;;;;5071724;28;20191;-76
2023/05/10 05:56:41;;;;;;;8.50;8.20;;;14.80;50.40;;;;;;5071319;28;20421;-75
2023/05/10 05:59:07;;;;;;;9.10;8.80;;;14.90;50.70;;;;;;5053097;28;20552;-75
2023/05/10 06:01:32;;;;;;;8.87;8.37;;;14.80;50.50;;;;;;5051767;28;20310;-75
2023/05/10 06:03:57;;;;;;;8.23;7.97;;;14.70;50.70;;;;;;5069414;28;20218;-76
2023/05/10 06:06:23;;;;;;;8.50;8.20;;;14.60;51.00;;;;;;5067716;28;20745;-74
2023/05/10 06:08:49;;;;;;;7.77;7.47;;;14.60;52.20;;;;;;5069569;28;20175;-75
2023/05/10 06:11:14;;;;;;;8.00;7.30;;;14.60;51.60;;;;;;5051747;28;20166;-76
2023/05/10 06:13:40;;;;;;;9.10;8.70;;;14.60;53.10;;;;;;5070569;28;20191;-77
2023/05/10 06:16:05;;;;;;;8.40;8.10;;;14.70;52.00;;;;;;5070786;28;20664;-77
2023/05/10 06:18:31;;;;;;;8.10;7.80;;;14.80;52.10;;;;;;5053390;28;20171;-75
2023/05/10 06:20:57;;;;;;;8.50;8.20;;;14.90;51.10;;;;;;5052366;28;20458;-76
2023/05/10 06:23:22;;;;;;;8.80;8.50;;;15.00;50.40;;;;;;5053584;28;20743;-76
2023/05/10 06:25:48;;;;;;;8.60;8.30;;;15.00;50.00;;;;;;5069792;28;20438;-77
2023/05/10 06:28:13;;;;;;;8.90;8.60;;;15.00;50.40;;;;;;5072618;28;20186;-76
2023/05/10 06:30:39;;;;;;;8.57;8.20;;;15.10;50.50;;;;;;5071535;28;20250;-75
2023/05/10 06:33:05;;;;;;;9.13;8.73;;;15.20;48.90;;;;;;5069732;28;20213;-76
2023/05/10 06:35:32;;;;;;;8.13;7.83;;;15.20;49.20;;;;;;5073833;28;20264;-73
2023/05/10 06:37:57;;;;;;;7.87;7.57;;;15.10;50.50;;;;;;5052005;28;20179;-72
2023/05/10 06:40:23;;;;;;;8.47;7.97;;;15.00;51.60;;;;;;5071344;28;20405;-74
2023/05/10 06:42:48;;;;;;;7.40;7.10;;;15.00;53.40;;;;;;5067113;28;20290;-74
2023/05/10 06:45:15;;;;;;;8.13;7.60;;;15.00;53.30;;;;;;5071116;28;20203;-74
2023/05/10 06:47:41;;;;;;;7.80;7.50;;;15.10;53.50;;;;;;5069940;28;20176;-75
2023/05/10 06:50:08;;;;;;;8.60;8.10;;;15.10;53.30;;;;;;5048059;28;20833;-74
2023/05/10 06:52:33;;;;;;;8.90;8.60;;;15.10;52.40;;;;;;5069337;28;20441;-75
2023/05/10 06:55:00;;;;;;;10.00;9.20;;;15.00;51.70;;;;;;5068805;28;20417;-74
2023/05/10 06:57:25;;;;;;;9.73;9.23;;;15.00;51.90;;;;;;5072427;28;20267;-75
2023/05/10 06:59:52;;;;;;;8.80;8.37;;;14.90;51.90;;;;;;5070449;28;20520;-74
2023/05/10 07:02:17;;;;;;;8.70;8.27;;;14.90;52.30;;;;;;5069869;28;20229;-75
2023/05/10 07:04:43;;;;;;;8.47;8.03;;;15.00;52.80;;;;;;5070562;28;20746;-76
2023/05/10 07:07:08;;;;;;;9.23;8.73;;;15.00;50.80;;;;;;5067728;28;20210;-77
2023/05/10 07:09:34;;;;;;;9.00;8.60;;;15.00;51.70;;;;;;5070414;28;20195;-74
2023/05/10 07:12:01;;;;;;;8.87;8.47;;;15.10;51.70;;;;;;5053834;28;20183;-75
2023/05/10 07:14:27;;;;;;;9.43;8.73;;;15.20;50.80;;;;;;5053784;28;20182;-75
2023/05/10 07:16:53;;;;;;;8.87;8.40;;;15.10;50.90;;;;;;5072767;28;20418;-74
2023/05/10 07:19:19;;;;;;;8.53;8.23;;;15.10;52.30;;;;;;5054969;28;20187;-74
2023/05/10 07:21:44;;;;;;;9.53;9.13;;;15.00;50.50;;;;;;5053846;28;20272;-75
2023/05/10 07:24:10;;;;;;;8.90;8.40;;;15.00;51.10;;;;;;5072781;28;20441;-74
2023/05/10 07:26:35;;;;;;;8.80;8.50;;;15.00;51.10;;;;;;5073506;28;20626;-75
2023/05/10 07:29:02;;;;;;;7.73;7.50;;;15.00;51.30;;;;;;5074671;28;20207;-75
2023/05/10 07:31:27;;;;;;;7.83;7.53;;;15.00;51.60;;;;;;5072892;28;21844;-75
2023/05/10 07:33:53;;;;;;;8.27;7.87;;;15.10;51.70;;;;;;5057704;28;20521;-75
2023/05/10 07:36:18;;;;;;;8.20;7.90;;;15.20;51.10;;;;;;5057577;28;20249;-75
2023/05/10 07:38:44;;;;;;;8.27;7.97;;;15.20;51.00;;;;;;5075067;28;20223;-73
2023/05/10 07:41:11;;;;;;;9.50;9.10;;;15.40;50.00;;;;;;5057576;28;20224;-75
2023/05/10 07:43:37;;;;;;;9.40;9.10;;;15.40;49.10;;;;;;5076013;28;20211;-75
2023/05/10 07:46:02;;;;;;;9.60;9.30;;;15.40;47.80;;;;;;5076504;28;20416;-75
2023/05/10 07:48:28;;;;;;;9.73;9.33;;;15.40;47.70;;;;;;5075731;28;20246;-75
2023/05/10 07:50:53;;;;;;;9.17;8.77;;;15.50;47.60;;;;;;5075312;28;20584;-75
2023/05/10 07:53:19;;;;;;;9.97;9.40;;;15.60;46.60;;;;;;5074518;28;20206;-74
2023/05/10 07:55:49;;;;;;;10.80;10.30;;;15.70;46.70;;;;;;5075536;28;20187;-74
2023/05/10 07:58:14;;;;;;;9.40;9.00;;;15.60;44.00;;;;;;5072750;28;20594;-73
2023/05/10 08:00:41;;;;;;;9.83;9.53;;;15.50;44.40;;;;;;5057627;28;20509;-73
2023/05/10 08:03:06;;;;;;;9.83;9.53;;;15.60;46.50;;;;;;5075102;28;20217;-75
2023/05/10 08:05:32;;;;;;;9.43;9.03;;;15.50;44.30;;;;;;5057897;28;20429;-73
2023/05/10 08:07:57;;;;;;;9.50;9.17;;;15.50;43.60;;;;;;5075992;28;20180;-74
2023/05/10 08:10:24;;;;;;;10.50;9.87;;;15.60;43.60;;;;;;5074616;28;20214;-74
2023/05/10 08:12:49;;;;;;;9.90;9.27;;;15.70;44.10;;;;;;5073926;28;20235;-74
2023/05/10 08:15:15;;;;;;;8.83;8.60;;;15.70;43.40;;;;;;5074902;28;20856;-75
2023/05/10 08:17:42;;;;;;;9.47;9.07;;;15.80;42.70;;;;;;5075384;28;20255;-74
2023/05/10 08:20:08;;;;;;;9.20;8.90;;;15.90;41.80;;;;;;5074813;28;20179;-73
2023/05/10 08:22:34;;;;;;;10.40;10.10;;;16.00;41.70;;;;;;5056117;28;20490;-74
2023/05/10 08:24:59;;;;;;;10.37;9.97;;;16.10;41.10;;;;;;5074771;28;20179;-74
2023/05/10 08:27:25;;;;;;;10.70;10.13;;;16.10;41.30;;;;;;5074442;28;20188;-75
2023/05/10 08:29:50;;;;;;;10.27;9.97;;;16.10;41.00;;;;;;5057236;28;20186;-72
2023/05/10 08:32:16;;;;;;;10.70;10.17;;;16.20;40.40;;;;;;5055939;28;20187;-72
2023/05/10 08:34:42;;;;;;;10.60;9.80;;;16.30;40.30;;;;;;5076636;28;20171;-74
2023/05/10 08:37:08;;;;;;;10.20;9.90;;;16.20;41.10;;;;;;5075613;28;20496;-74
2023/05/10 08:39:36;;;;;;;10.60;9.90;;;16.10;40.60;;;;;;5074888;28;20229;-75
2023/05/10 08:42:04;;;;;;;9.97;9.57;;;16.00;41.10;;;;;;5075760;28;20571;-74
2023/05/10 08:44:35;;;;;;;10.00;9.60;;;16.00;41.40;;;;;;5076042;28;20488;-75
2023/05/10 08:47:05;;;;;;;10.30;9.90;;;16.10;41.50;;;;;;5076232;28;20413;-74
2023/05/10 08:49:32;;;;;;;9.63;9.33;;;16.20;39.70;;;;;;5058866;28;20417;-75
2023/05/10 08:52:01;;;;;;;9.60;9.20;;;16.30;39.10;;;;;;5076416;28;20405;-74
2023/05/10 08:54:27;;;;;;;9.37;9.00;;;16.40;38.80;;;;;;5075207;28;20865;-73
2023/05/10 08:56:53;;;;;;;15.67;11.00;;;16.30;39.00;;;;;;5088349;28;20429;-72
2023/05/10 08:59:18;;;;;;;10.40;9.77;;;16.20;39.20;;;;;;5088849;28;20420;-73
2023/05/10 09:01:45;;;;;;;9.30;8.83;;;16.10;38.80;;;;;;5087063;28;20207;-74
2023/05/10 09:04:12;;;;;;;9.80;9.40;;;16.10;38.40;;;;;;5086567;28;20191;-72
2023/05/10 09:06:38;;;;;;;10.70;10.20;;;16.20;38.90;;;;;;5091835;28;20422;-73
2023/05/10 09:09:03;;;;;;;9.83;9.53;;;16.30;38.70;;;;;;5092189;28;20417;-73
2023/05/10 09:11:29;;;;;;;9.17;8.77;;;16.40;38.00;;;;;;5087551;28;20199;-73
2023/05/10 09:13:56;;;;;;;10.50;9.87;;;16.40;37.50;;;;;;5078751;28;20221;-74
2023/05/10 09:16:22;;;;;;;9.63;9.30;;;16.30;38.00;;;;;;5057842;28;20425;-74
2023/05/10 09:18:49;;;;;;;9.00;8.80;;;16.30;37.80;;;;;;5079604;28;20823;-73
2023/05/10 09:21:14;;;;;;;8.73;8.40;;;16.10;36.30;;;;;;5076102;28;20747;-74
2023/05/10 09:23:43;;;;;;;9.33;8.93;;;16.20;36.90;;;;;;5075550;28;20509;-72
2023/05/10 09:26:09;;;;;;;9.47;8.90;;;16.30;37.00;;;;;;5073198;28;20527;-72
2023/05/10 09:28:51;;;;;;;9.47;9.07;;;16.40;34.30;;;;;;5072442;28;20444;-71
2023/05/10 09:31:16;;;;;;;9.30;8.90;;;16.40;34.00;;;;;;5072433;28;20175;-73
2023/05/10 09:33:46;;;;;;;9.30;9.00;;;16.40;34.10;;;;;;5071867;28;20438;-71
2023/05/10 09:36:12;;;;;;;9.53;9.23;;;16.50;33.10;;;;;;5072122;28;20246;-74
2023/05/10 09:38:48;;;;;;;9.67;9.00;;;16.50;33.20;;;;;;5052355;28;20414;-71
2023/05/10 09:41:22;;;;;;;9.00;8.50;;;16.40;33.10;;;;;;5054229;28;20406;-72
2023/05/10 09:43:48;;;;;;;10.10;9.07;;;16.30;33.20;;;;;;5072122;28;20437;-72
2023/05/10 09:46:15;;;;;;;9.20;8.80;;;16.30;33.80;;;;;;5071410;28;20405;-72
2023/05/10 09:48:43;;;;;;;8.73;8.47;;;16.30;34.50;;;;;;5070768;28;20402;-71
2023/05/10 09:51:09;;;;;;;8.27;7.97;;;16.30;34.10;;;;;;5070224;28;20410;-73
2023/05/10 09:53:34;;;;;;;8.00;7.60;;;16.40;33.80;;;;;;5071078;28;20444;-73
2023/05/10 09:56:00;;;;;;;8.60;8.40;;;16.40;33.50;;;;;;5072207;28;20198;-73
2023/05/10 09:58:25;;;;;;;8.07;7.67;;;16.60;33.70;;;;;;5072514;28;20175;-73
2023/05/10 10:00:52;;;;;;;8.77;8.37;;;16.70;32.80;;;;;;5073225;28;20225;-73
2023/05/10 10:03:20;;;;;;;8.50;8.20;;;16.70;32.90;;;;;;5071383;28;20221;-72
2023/05/10 10:05:47;;;;;;;7.97;7.67;;;16.80;33.10;;;;;;5072016;28;20416;-73
2023/05/10 10:08:13;;;;;;;8.47;8.17;;;16.90;32.40;;;;;;5071969;28;20413;-73
2023/05/10 10:10:40;;;;;;;8.60;8.07;;;16.90;31.60;;;;;;5070015;28;20940;-73
2023/05/10 10:13:06;;;;;;;8.53;8.23;;;16.80;34.30;;;;;;5070998;28;20433;-72
2023/05/10 10:15:33;;;;;;;8.53;8.27;;;16.80;32.50;;;;;;5070770;28;20428;-73
2023/05/10 10:17:59;;;;;;;8.03;7.73;;;16.80;32.90;;;;;;5071314;28;20430;-73
2023/05/10 10:20:26;;;;;;;9.97;9.67;;;16.80;32.50;;;;;;5068208;28;20904;-73
2023/05/10 10:22:52;;;;;;;8.60;8.40;;;16.90;32.30;;;;;;5070185;28;20552;-73
2023/05/10 10:25:20;;;;;;;8.57;8.17;;;16.90;31.50;;;;;;5070863;28;20505;-72
2023/05/10 10:27:51;;;;;;;7.97;7.77;;;16.90;32.80;;;;;;5069630;28;20195;-75
2023/05/10 10:30:36;;;;;;;7.43;7.23;;;16.90;30.70;;;;;;5072466;28;20593;-73
2023/05/10 10:33:38;;;;;;;8.30;7.80;;;17.00;29.60;;;;;;5071591;28;20532;-73
2023/05/10 10:36:05;;;;;;;8.53;8.13;;;17.00;29.80;;;;;;5072285;28;20420;-74
2023/05/10 10:38:59;;;;;;;9.10;8.60;;;17.00;32.10;;;;;;5052141;28;20836;-74
2023/05/10 10:41:35;;;;;;;7.83;7.60;;;16.90;30.50;;;;;;5067082;28;20453;-74
2023/05/10 10:44:26;;;;;;;8.20;7.90;;;16.90;29.70;;;;;;5072184;28;20441;-74
2023/05/10 10:47:32;;;;;;;9.40;9.00;;;16.90;29.70;;;;;;5072663;28;20521;-75
2023/05/10 10:49:58;;;;;;;8.77;8.37;;;17.00;30.00;;;;;;5072821;28;20422;-75
2023/05/10 10:52:43;;;;;;;8.70;8.50;;;17.00;29.50;;;;;;5071957;28;20433;-74
2023/05/10 10:55:24;;;;;;;8.43;8.13;;;17.00;29.60;;;;;;5072322;28;20666;-74
2023/05/10 10:58:00;;;;;;;8.80;8.50;;;16.90;29.50;;;;;;5073162;28;20508;-74
2023/05/10 11:00:33;;;;;;;8.20;7.90;;;16.60;29.10;;;;;;5072295;28;20448;-72
2023/05/10 11:03:06;;;;;;;7.63;7.23;;;16.40;29.60;;;;;;5073885;28;20610;-74
2023/05/10 11:05:41;;;;;;;8.17;7.87;;;16.40;29.20;;;;;;5076023;28;20477;-74
2023/05/10 11:08:30;;;;;;;8.17;7.87;;;16.40;29.30;;;;;;5076269;28;20920;-73
2023/05/10 11:10:58;;;;;;;7.97;7.67;;;16.30;28.20;;;;;;5075483;28;20413;-74
2023/05/10 11:13:45;;;;;;;8.03;7.73;;;16.20;28.10;;;;;;5075087;28;20802;-74
2023/05/10 11:16:14;;;;;;;8.00;7.80;;;16.00;28.10;;;;;;5075484;28;20753;-73
2023/05/10 11:18:40;;;;;;;8.13;7.53;;;15.90;28.40;;;;;;5074264;28;20774;-74
2023/05/10 11:21:10;;;;;;;7.40;7.00;;;15.90;28.70;;;;;;5074608;28;20416;-74
2023/05/10 11:23:48;;;;;;;8.57;8.27;;;16.10;29.00;;;;;;5074837;28;20222;-74
2023/05/10 11:26:14;;;;;;;9.00;8.70;;;16.10;28.80;;;;;;5058257;28;20417;-74
2023/05/10 11:28:47;;;;;;;8.10;7.80;;;16.20;29.10;;;;;;5075765;28;20850;-74
2023/05/10 11:31:14;;;;;;;8.87;8.57;;;16.30;29.50;;;;;;5075218;28;20163;-73
2023/05/10 11:33:44;;;;;;;8.90;8.60;;;16.30;28.70;;;;;;5075880;28;20920;-75
2023/05/10 11:36:36;;;;;;;8.83;8.63;;;16.40;28.10;;;;;;5075985;28;20413;-75
2023/05/10 11:39:03;;;;;;;9.00;8.80;;;16.20;27.60;;;;;;5064830;28;20555;-74
2023/05/10 11:41:30;;;;;;;8.80;8.50;;;16.20;27.80;;;;;;5074888;28;20911;-74
2023/05/10 11:43:57;;;;;;;9.10;8.70;;;16.30;27.90;;;;;;5072975;28;20505;-74
2023/05/10 11:46:26;;;;;;;8.57;8.30;;;16.30;28.20;;;;;;5076132;28;20485;-74
2023/05/10 11:48:55;;;;;;;8.30;8.00;;;16.40;28.40;;;;;;5057513;28;20413;-73
2023/05/10 11:51:22;;;;;;;9.07;8.67;;;16.60;27.90;;;;;;5074139;28;20991;-74
2023/05/10 11:53:56;;;;;;;9.50;8.93;;;16.70;26.80;;;;;;5072579;28;20441;-71
2023/05/10 11:56:23;;;;;;;9.63;9.33;;;16.60;27.70;;;;;;5073430;28;20406;-72
2023/05/10 11:58:57;;;;;;;9.50;9.13;;;16.50;28.20;;;;;;5074419;28;20428;-72
2023/05/10 12:01:24;;;;;;;9.40;9.00;;;16.50;27.80;;;;;;5069732;28;20947;-73
2023/05/10 12:03:51;;;;;;;9.63;9.33;;;16.40;27.50;;;;;;5056105;28;20431;-74
2023/05/10 12:06:18;;;;;;;10.00;9.70;;;16.40;28.40;;;;;;5054551;28;20399;-74
2023/05/10 12:08:47;;;;;;;10.17;9.87;;;16.50;28.50;;;;;;5053270;28;20433;-75
2023/05/10 12:11:17;;;;;;;10.10;9.70;;;16.40;27.50;;;;;;5073629;28;20417;-74
2023/05/10 12:13:46;;;;;;;10.10;9.80;;;16.20;27.70;;;;;;5075270;28;20799;-74
2023/05/10 12:16:16;;;;;;;10.73;10.00;;;16.30;28.00;;;;;;5056796;28;20417;-73
2023/05/10 12:18:42;;;;;;;10.33;10.00;;;16.20;27.40;;;;;;5075415;28;20938;-74
2023/05/10 12:21:10;;;;;;;10.47;9.97;;;16.20;28.30;;;;;;5074413;28;20397;-74
2023/05/10 12:23:36;;;;;;;10.10;9.80;;;16.30;29.00;;;;;;5074930;28;20294;-74
2023/05/10 12:26:04;;;;;;;10.33;9.93;;;16.40;28.00;;;;;;5074122;28;20446;-74
2023/05/10 12:28:31;;;;;;;9.53;9.00;;;16.40;27.80;;;;;;5074640;28;20194;-74
2023/05/10 12:30:58;;;;;;;10.27;9.77;;;16.40;27.50;;;;;;5074472;28;20410;-75
2023/05/10 12:33:23;;;;;;;10.17;9.77;;;16.40;27.50;;;;;;5073641;28;20429;-74
2023/05/10 12:35:51;;;;;;;9.47;9.17;;;16.50;27.00;;;;;;5074769;28;20413;-73
2023/05/10 12:38:33;;;;;;;9.40;8.87;;;16.40;25.50;;;;;;5055679;28;20187;-74
2023/05/10 12:41:00;;;;;;;9.33;8.73;;;16.50;25.00;;;;;;5073307;28;20420;-75
2023/05/10 12:43:27;;;;;;;8.53;8.03;;;16.50;24.50;;;;;;5074024;28;20461;-74
2023/05/10 12:45:52;;;;;;;9.53;9.03;;;16.60;24.30;;;;;;5075959;28;20425;-74
2023/05/10 12:48:18;;;;;;;8.27;7.97;;;16.70;23.60;;;;;;5075145;28;20414;-74
2023/05/10 12:50:44;;;;;;;9.40;9.00;;;16.70;23.90;;;;;;5075575;28;20589;-73